createdAt,value
2022-11-27T00:00:47.913Z,102671.66
2022-11-27T00:03:16.741Z,102664.56
2022-11-27T00:05:56.501Z,102658.47
2022-11-27T00:08:26.697Z,102653.06
2022-11-27T00:10:55.567Z,102651.34
2022-11-27T00:13:24.698Z,102656.59
2022-11-27T00:15:53.530Z,102651.22
2022-11-27T00:18:25.148Z,102641.41
2022-11-27T00:20:55.696Z,102640.44
2022-11-27T00:23:24.585Z,102641.25
2022-11-27T00:25:54.400Z,102619.97
2022-11-27T00:28:23.140Z,102626.13
2022-11-27T00:30:52.339Z,102612.81
2022-11-27T00:33:21.261Z,102607.56
2022-11-27T00:35:52.166Z,102604.00
2022-11-27T00:38:22.769Z,102602.09
2022-11-27T00:40:51.519Z,102594.09
2022-11-27T00:43:20.649Z,102591.47
2022-11-27T00:45:51.373Z,102579.88
2022-11-27T00:48:20.117Z,102581.78
2022-11-27T00:50:48.833Z,102567.44
2022-11-27T00:53:17.633Z,102556.03
2022-11-27T00:55:49.599Z,102555.19
2022-11-27T00:58:18.341Z,102546.41
2022-11-27T01:00:47.365Z,102537.75
2022-11-27T01:03:17.424Z,102537.03
2022-11-27T01:05:46.140Z,102528.84
2022-11-27T01:08:14.725Z,102536.94
2022-11-27T01:10:54.887Z,102532.56
2022-11-27T01:13:27.100Z,102526.19
2022-11-27T01:16:01.830Z,102540.28
2022-11-27T01:18:31.608Z,102543.03
2022-11-27T01:21:00.687Z,102544.00
2022-11-27T01:23:29.963Z,102553.69
2022-11-27T01:26:02.575Z,102547.41
2022-11-27T01:28:31.751Z,102550.09
2022-11-27T01:31:05.274Z,102544.75
2022-11-27T01:33:34.301Z,102550.94
2022-11-27T01:36:06.153Z,102564.38
2022-11-27T01:38:36.314Z,102564.25
2022-11-27T01:41:13.229Z,102563.38
2022-11-27T01:43:46.480Z,102557.00
2022-11-27T01:46:39.442Z,102552.59
2022-11-27T01:49:30.091Z,102551.81
2022-11-27T01:52:03.786Z,102558.00
2022-11-27T01:54:39.184Z,102551.81
2022-11-27T01:57:16.987Z,102555.41
2022-11-27T01:59:47.675Z,102551.94
2022-11-27T02:02:16.577Z,102555.41
2022-11-27T02:04:45.878Z,102548.38
2022-11-27T02:07:14.894Z,102541.41
2022-11-27T02:09:43.922Z,102547.72
2022-11-27T02:12:25.318Z,102543.28
2022-11-27T02:15:05.124Z,102549.50
2022-11-27T02:17:48.572Z,102552.03
2022-11-27T02:20:33.344Z,102550.22
2022-11-27T02:24:02.529Z,102548.41
2022-11-27T02:27:03.659Z,102532.34
2022-11-27T02:29:36.728Z,102538.59
2022-11-27T02:32:16.350Z,102534.19
2022-11-27T02:34:51.182Z,102534.16
2022-11-27T02:37:28.651Z,102529.78
2022-11-27T02:40:04.448Z,102533.28
2022-11-27T02:42:39.424Z,102530.69
2022-11-27T02:45:15.691Z,102536.09
2022-11-27T02:47:49.636Z,102536.16
2022-11-27T02:50:25.210Z,102542.47
2022-11-27T02:53:01.083Z,102543.44
2022-11-27T02:55:36.395Z,102540.81
2022-11-27T02:58:14.483Z,102540.84
2022-11-27T03:00:48.767Z,102531.22
2022-11-27T03:03:26.839Z,102533.06
2022-11-27T03:06:02.738Z,102537.56
2022-11-27T03:08:39.950Z,102528.81
2022-11-27T03:11:11.974Z,102527.81
2022-11-27T03:13:47.156Z,102526.19
2022-11-27T03:16:29.625Z,102522.78
2022-11-27T03:19:08.925Z,102529.19
2022-11-27T03:21:42.515Z,102527.31
2022-11-27T03:24:13.406Z,102522.81
2022-11-27T03:26:44.191Z,102522.09
2022-11-27T03:29:18.084Z,102517.69
2022-11-27T03:31:49.412Z,102516.81
2022-11-27T03:34:19.005Z,102511.44
2022-11-27T03:36:47.945Z,102514.16
2022-11-27T03:39:17.492Z,102523.03
2022-11-27T03:41:54.744Z,102521.44
2022-11-27T03:44:34.778Z,102508.28
2022-11-27T03:47:19.544Z,102512.78
2022-11-27T03:50:07.333Z,102514.81
2022-11-27T03:52:46.370Z,102517.69
2022-11-27T03:55:25.425Z,102520.16
2022-11-27T03:58:02.859Z,102518.53
2022-11-27T04:00:39.762Z,102520.34
2022-11-27T04:03:14.796Z,102528.25
2022-11-27T04:05:44.817Z,102523.69
2022-11-27T04:08:13.695Z,102524.59
2022-11-27T04:10:43.526Z,102525.19
2022-11-27T04:13:12.910Z,102530.53
2022-11-27T04:15:43.076Z,102527.94
2022-11-27T04:18:14.424Z,102523.72
2022-11-27T04:20:45.773Z,102526.41
2022-11-27T04:23:19.674Z,102521.22
2022-11-27T04:25:52.168Z,102515.22
2022-11-27T04:28:24.034Z,102511.84
2022-11-27T04:30:57.497Z,102512.25
2022-11-27T04:33:29.709Z,102511.56
2022-11-27T04:35:58.845Z,102519.72
2022-11-27T04:38:27.857Z,102518.16
2022-11-27T04:40:58.818Z,102513.75
2022-11-27T04:43:29.117Z,102515.44
2022-11-27T04:45:58.303Z,102511.91
2022-11-27T04:48:29.942Z,102518.03
2022-11-27T04:50:59.183Z,102509.44
2022-11-27T04:53:28.385Z,102509.53
2022-11-27T04:55:57.619Z,102515.75
2022-11-27T04:58:27.152Z,102498.09
2022-11-27T05:00:57.084Z,102497.28
2022-11-27T05:03:27.665Z,102492.88
2022-11-27T05:05:58.397Z,102494.66
2022-11-27T05:08:28.440Z,102485.03
2022-11-27T05:11:06.747Z,102482.56
2022-11-27T05:13:38.038Z,102485.22
2022-11-27T05:16:13.357Z,102473.66
2022-11-27T05:18:44.284Z,102464.97
2022-11-27T05:21:13.305Z,102467.69
2022-11-27T05:23:43.504Z,102473.13
2022-11-27T05:26:13.559Z,102477.69
2022-11-27T05:28:43.438Z,102478.69
2022-11-27T05:31:15.814Z,102474.59
2022-11-27T05:33:50.849Z,102475.69
2022-11-27T05:36:20.671Z,102472.00
2022-11-27T05:38:53.026Z,102471.97
2022-11-27T05:41:22.433Z,102476.25
2022-11-27T05:43:52.619Z,102490.56
2022-11-27T05:46:24.545Z,102491.53
2022-11-27T05:48:55.558Z,102489.63
2022-11-27T05:51:27.470Z,102470.00
2022-11-27T05:53:58.548Z,102465.59
2022-11-27T05:56:28.306Z,102465.59
2022-11-27T05:58:57.744Z,102463.03
2022-11-27T06:01:26.583Z,102456.03
2022-11-27T06:03:56.899Z,102456.22
2022-11-27T06:06:28.119Z,102456.50
2022-11-27T06:08:58.118Z,102456.88
2022-11-27T06:11:31.449Z,102456.06
2022-11-27T06:14:00.419Z,102445.59
2022-11-27T06:16:29.884Z,102451.91
2022-11-27T06:19:00.651Z,102452.59
2022-11-27T06:21:33.773Z,102449.78
2022-11-27T06:24:03.317Z,102442.69
2022-11-27T06:26:34.860Z,102438.31
2022-11-27T06:29:12.656Z,102446.41
2022-11-27T06:31:42.918Z,102436.00
2022-11-27T06:34:14.838Z,102436.28
2022-11-27T06:36:44.748Z,102437.44
2022-11-27T06:39:13.937Z,102439.31
2022-11-27T06:41:44.113Z,102433.13
2022-11-27T06:44:13.058Z,102437.75
2022-11-27T06:46:49.334Z,102426.38
2022-11-27T06:49:24.292Z,102425.38
2022-11-27T06:51:59.364Z,102423.69
2022-11-27T06:54:33.409Z,102420.22
2022-11-27T06:57:03.083Z,102426.56
2022-11-27T06:59:32.322Z,102427.78
2022-11-27T07:02:01.599Z,102434.16
2022-11-27T07:04:32.439Z,102429.03
2022-11-27T07:07:02.143Z,102424.63
2022-11-27T07:09:32.107Z,102423.97
2022-11-27T07:12:01.410Z,102423.31
2022-11-27T07:14:31.153Z,102419.28
2022-11-27T07:17:00.878Z,102431.69
2022-11-27T07:19:31.972Z,102432.00
2022-11-27T07:22:01.151Z,102428.63
2022-11-27T07:24:30.316Z,102429.31
2022-11-27T07:27:00.593Z,102417.81
2022-11-27T07:29:33.087Z,102414.19
2022-11-27T07:32:08.501Z,102417.81
2022-11-27T07:34:39.640Z,102419.56
2022-11-27T07:37:13.462Z,102410.63
2022-11-27T07:40:01.804Z,102405.50
2022-11-27T07:42:39.558Z,102405.59
2022-11-27T07:45:10.545Z,102395.91
2022-11-27T07:47:45.096Z,102398.56
2022-11-27T07:50:17.015Z,102402.19
2022-11-27T07:52:49.945Z,102395.00
2022-11-27T07:55:22.950Z,102393.97
2022-11-27T07:57:56.199Z,102388.53
2022-11-27T08:00:27.212Z,102383.00
2022-11-27T08:02:56.389Z,102386.38
2022-11-27T08:05:27.509Z,102386.97
2022-11-27T08:07:58.115Z,102389.59
2022-11-27T08:10:27.189Z,102376.75
2022-11-27T08:12:56.036Z,102378.50
2022-11-27T08:15:26.890Z,102386.34
2022-11-27T08:17:56.130Z,102383.63
2022-11-27T08:20:29.100Z,102381.69
2022-11-27T08:23:02.741Z,102377.81
2022-11-27T08:25:33.143Z,102372.69
2022-11-27T08:28:02.150Z,102367.34
2022-11-27T08:30:31.573Z,102367.28
2022-11-27T08:33:01.765Z,102360.25
2022-11-27T08:35:32.727Z,102356.78
2022-11-27T08:38:05.463Z,102348.97
2022-11-27T08:40:34.313Z,102354.16
2022-11-27T08:43:03.575Z,102339.00
2022-11-27T08:45:33.285Z,102346.06
2022-11-27T08:48:02.831Z,102341.56
2022-11-27T08:50:33.766Z,102344.09
2022-11-27T08:53:04.246Z,102349.06
2022-11-27T08:55:33.340Z,102350.91
2022-11-27T08:58:04.024Z,102355.38
2022-11-27T09:00:34.477Z,102350.78
2022-11-27T09:03:05.270Z,102351.34
2022-11-27T09:05:37.363Z,102358.13
2022-11-27T09:08:07.483Z,102358.75
2022-11-27T09:10:38.770Z,102356.19
2022-11-27T09:13:07.790Z,102364.97
2022-11-27T09:15:40.555Z,102360.22
2022-11-27T09:18:10.332Z,102361.78
2022-11-27T09:20:45.254Z,102362.50
2022-11-27T09:23:17.199Z,102359.97
2022-11-27T09:25:47.400Z,102367.66
2022-11-27T09:28:18.116Z,102363.91
2022-11-27T09:30:47.495Z,102366.81
2022-11-27T09:33:19.997Z,102372.28
2022-11-27T09:35:50.143Z,102360.66
2022-11-27T09:38:19.005Z,102356.66
2022-11-27T09:40:51.985Z,102350.63
2022-11-27T09:43:30.182Z,102335.91
2022-11-27T09:46:10.093Z,102328.75
2022-11-27T09:48:46.166Z,102332.72
2022-11-27T09:51:27.805Z,102338.19
2022-11-27T09:54:05.692Z,102351.91
2022-11-27T09:56:38.451Z,102361.25
2022-11-27T09:59:18.884Z,102366.34
2022-11-27T10:01:51.087Z,102358.41
2022-11-27T10:04:23.632Z,102347.75
2022-11-27T10:07:18.326Z,102355.91
2022-11-27T10:10:11.349Z,102359.56
2022-11-27T10:12:57.545Z,102345.00
2022-11-27T10:15:46.793Z,102339.75
2022-11-27T10:18:31.314Z,102327.78
2022-11-27T10:21:04.549Z,102321.50
2022-11-27T10:23:49.372Z,102316.13
2022-11-27T10:26:25.222Z,102309.28
2022-11-27T10:29:05.113Z,102301.13
2022-11-27T10:31:42.585Z,102296.41
2022-11-27T10:34:39.776Z,102288.03
2022-11-27T10:37:20.379Z,102281.06
2022-11-27T10:40:00.254Z,102281.06
2022-11-27T10:42:40.515Z,102282.78
2022-11-27T10:45:27.627Z,102281.53
2022-11-27T10:48:00.361Z,102262.78
2022-11-27T10:50:30.255Z,102252.63
2022-11-27T10:53:06.690Z,102241.47
2022-11-27T10:56:04.972Z,102234.75
2022-11-27T10:58:45.121Z,102234.66
2022-11-27T11:01:31.100Z,102227.69
2022-11-27T11:04:36.307Z,102228.91
2022-11-27T11:07:03.595Z,102229.75
2022-11-27T11:09:37.080Z,102226.09
2022-11-27T11:12:21.368Z,102223.78
2022-11-27T11:14:56.309Z,102228.44
2022-11-27T11:17:29.785Z,102217.72
2022-11-27T11:19:59.168Z,102212.28
2022-11-27T11:22:34.350Z,102198.72
2022-11-27T11:25:04.542Z,102190.88
2022-11-27T11:27:36.003Z,102194.41
2022-11-27T11:30:10.592Z,102181.91
2022-11-27T11:32:42.813Z,102179.69
2022-11-27T11:35:28.942Z,102169.56
2022-11-27T11:38:02.156Z,102165.00
2022-11-27T11:40:41.149Z,102166.63
2022-11-27T11:43:29.474Z,102149.13
2022-11-27T11:46:19.438Z,102150.13
2022-11-27T11:49:03.771Z,102143.53
2022-11-27T11:51:58.131Z,102139.22
2022-11-27T11:54:57.791Z,102126.56
2022-11-27T11:58:10.597Z,102112.44
2022-11-27T12:01:25.351Z,102103.94
2022-11-27T12:04:08.921Z,102110.06
2022-11-27T12:06:56.231Z,102108.19
2022-11-27T12:09:47.712Z,102103.25
2022-11-27T12:12:40.662Z,102103.34
2022-11-27T12:15:25.425Z,102107.59
2022-11-27T12:18:06.652Z,102099.41
2022-11-27T12:20:54.425Z,102103.94
2022-11-27T12:24:06.202Z,102100.72
2022-11-27T12:26:59.763Z,102097.53
2022-11-27T12:30:03.496Z,102085.84
2022-11-27T12:33:19.356Z,102085.16
2022-11-27T12:36:02.833Z,102081.41
2022-11-27T12:39:09.784Z,102078.94
2022-11-27T12:42:03.996Z,102077.50
2022-11-27T12:44:49.004Z,102063.75
2022-11-27T12:47:27.115Z,102055.97
2022-11-27T12:50:04.383Z,102055.72
2022-11-27T12:52:50.237Z,102058.78
2022-11-27T12:55:29.589Z,102049.41
2022-11-27T12:58:06.983Z,102046.75
2022-11-27T13:00:47.043Z,102043.22
2022-11-27T13:03:31.761Z,102041.53
2022-11-27T13:06:15.235Z,102038.78
2022-11-27T13:08:57.471Z,102042.59
2022-11-27T13:11:38.467Z,102042.34
2022-11-27T13:14:16.371Z,102036.34
2022-11-27T13:16:59.387Z,102033.69
2022-11-27T13:19:34.355Z,102033.69
2022-11-27T13:22:11.408Z,102031.94
2022-11-27T13:24:41.187Z,102029.66
2022-11-27T13:27:19.040Z,102038.38
2022-11-27T13:29:54.645Z,102032.47
2022-11-27T13:32:31.378Z,102026.13
2022-11-27T13:35:06.297Z,102033.34
2022-11-27T13:37:41.045Z,102035.13
2022-11-27T13:40:26.181Z,102027.28
2022-11-27T13:43:08.138Z,102021.13
2022-11-27T13:45:40.225Z,102019.47
2022-11-27T13:48:32.716Z,102015.00
2022-11-27T13:51:02.576Z,102006.16
2022-11-27T13:53:40.850Z,102008.81
2022-11-27T13:56:11.498Z,102003.50
2022-11-27T13:58:43.513Z,102002.44
2022-11-27T14:01:19.017Z,101991.91
2022-11-27T14:03:49.052Z,101998.97
2022-11-27T14:06:25.614Z,102004.97
2022-11-27T14:09:01.008Z,101999.66
2022-11-27T14:11:40.657Z,102005.06
2022-11-27T14:14:22.978Z,101995.88
2022-11-27T14:17:04.506Z,101993.53
2022-11-27T14:19:41.399Z,101989.88
2022-11-27T14:22:17.064Z,101983.75
2022-11-27T14:24:57.443Z,101981.25
2022-11-27T14:27:35.197Z,101967.25
2022-11-27T14:30:25.691Z,101962.81
2022-11-27T14:32:55.840Z,101961.94
2022-11-27T14:35:29.226Z,101962.19
2022-11-27T14:38:13.179Z,101965.94
2022-11-27T14:40:44.330Z,101976.78
2022-11-27T14:43:22.369Z,101977.22
2022-11-27T14:45:59.404Z,101981.97
2022-11-27T14:48:44.866Z,101977.00
2022-11-27T14:51:22.011Z,101967.41
2022-11-27T14:53:58.049Z,101970.94
2022-11-27T14:56:35.283Z,101962.22
2022-11-27T14:59:07.177Z,101962.28
2022-11-27T15:01:40.443Z,101964.25
2022-11-27T15:04:31.977Z,101972.28
2022-11-27T15:07:08.101Z,101967.28
2022-11-27T15:09:45.139Z,101968.56
2022-11-27T15:12:27.507Z,101960.16
2022-11-27T15:15:04.472Z,101964.72
2022-11-27T15:17:41.724Z,101963.50
2022-11-27T15:20:18.012Z,101961.59
2022-11-27T15:22:52.123Z,101948.19
2022-11-27T15:25:40.353Z,101955.34
2022-11-27T15:28:32.102Z,101950.16
2022-11-27T15:31:01.970Z,101949.34
2022-11-27T15:33:33.597Z,101940.53
2022-11-27T15:36:24.729Z,101934.53
2022-11-27T15:38:54.079Z,101935.59
2022-11-27T15:41:27.669Z,101928.28
2022-11-27T15:44:04.136Z,101928.25
2022-11-27T15:46:40.615Z,101920.44
2022-11-27T15:49:19.313Z,101913.38
2022-11-27T15:51:49.980Z,101921.59
2022-11-27T15:54:20.269Z,101911.25
2022-11-27T15:56:51.040Z,101915.63
2022-11-27T15:59:25.114Z,101916.97
2022-11-27T16:01:56.894Z,101905.59
2022-11-27T16:04:29.830Z,101903.28
2022-11-27T16:07:05.482Z,101902.84
2022-11-27T16:09:34.642Z,101900.53
2022-11-27T16:12:04.782Z,101901.28
2022-11-27T16:14:36.486Z,101900.03
2022-11-27T16:17:06.064Z,101886.31
2022-11-27T16:19:35.981Z,101878.22
2022-11-27T16:22:05.296Z,101876.47
2022-11-27T16:24:38.595Z,101872.88
2022-11-27T16:27:09.877Z,101867.31
2022-11-27T16:29:41.446Z,101851.19
2022-11-27T16:32:24.241Z,101854.84
2022-11-27T16:34:54.169Z,101855.78
2022-11-27T16:37:26.251Z,101851.69
2022-11-27T16:39:55.365Z,101844.25
2022-11-27T16:42:28.555Z,101836.16
2022-11-27T16:45:02.437Z,101829.09
2022-11-27T16:47:34.866Z,101824.69
2022-11-27T16:50:13.588Z,101814.75
2022-11-27T16:52:42.500Z,101817.34
2022-11-27T16:55:14.133Z,101803.16
2022-11-27T16:57:43.975Z,101812.94
2022-11-27T17:00:20.823Z,101801.63
2022-11-27T17:02:50.940Z,101808.97
2022-11-27T17:05:21.908Z,101806.34
2022-11-27T17:07:53.339Z,101798.03
2022-11-27T17:10:23.741Z,101791.91
2022-11-27T17:12:53.165Z,101790.97
2022-11-27T17:15:35.177Z,101785.03
2022-11-27T17:18:14.517Z,101780.59
2022-11-27T17:20:47.255Z,101785.03
2022-11-27T17:23:17.696Z,101785.03
2022-11-27T17:25:47.140Z,101787.78
2022-11-27T17:28:17.119Z,101786.34
2022-11-27T17:30:48.303Z,101777.53
2022-11-27T17:33:22.378Z,101779.47
2022-11-27T17:35:51.244Z,101778.59
2022-11-27T17:38:21.165Z,101782.97
2022-11-27T17:40:53.132Z,101785.78
2022-11-27T17:43:22.731Z,101779.53
2022-11-27T17:45:53.948Z,101775.84
2022-11-27T17:48:25.294Z,101783.94
2022-11-27T17:50:56.313Z,101780.13
2022-11-27T17:53:25.801Z,101774.88
2022-11-27T17:55:58.091Z,101772.06
2022-11-27T17:58:32.104Z,101774.41
2022-11-27T18:01:20.052Z,101772.66
2022-11-27T18:03:52.202Z,101779.59
2022-11-27T18:06:22.877Z,101773.53
2022-11-27T18:08:58.637Z,101766.47
2022-11-27T18:11:32.169Z,101759.56
2022-11-27T18:14:04.217Z,101765.34
2022-11-27T18:16:38.559Z,101770.78
2022-11-27T18:19:14.076Z,101769.66
2022-11-27T18:21:45.995Z,101752.75
2022-11-27T18:24:24.461Z,101752.91
2022-11-27T18:27:13.279Z,101759.16
2022-11-27T18:29:49.383Z,101756.22
2022-11-27T18:32:21.468Z,101753.94
2022-11-27T18:35:04.947Z,101753.13
2022-11-27T18:37:36.177Z,101748.84
2022-11-27T18:40:05.938Z,101753.94
2022-11-27T18:42:35.224Z,101748.28
2022-11-27T18:45:05.493Z,101743.03
2022-11-27T18:47:45.724Z,101739.59
2022-11-27T18:50:16.828Z,101736.94
2022-11-27T18:52:46.042Z,101746.78
2022-11-27T18:55:15.880Z,101738.78
2022-11-27T18:57:44.593Z,101739.66
2022-11-27T19:00:18.847Z,101741.50
2022-11-27T19:02:51.089Z,101745.97
2022-11-27T19:05:20.444Z,101749.59
2022-11-27T19:07:50.339Z,101741.66
2022-11-27T19:10:24.718Z,101733.59
2022-11-27T19:12:56.469Z,101727.31
2022-11-27T19:15:25.833Z,101715.63
2022-11-27T19:18:01.488Z,101723.72
2022-11-27T19:20:36.289Z,101724.81
2022-11-27T19:23:16.039Z,101729.22
2022-11-27T19:25:49.556Z,101721.22
2022-11-27T19:28:19.509Z,101712.38
2022-11-27T19:30:49.010Z,101709.50
2022-11-27T19:33:22.489Z,101699.66
2022-11-27T19:35:53.216Z,101697.91
2022-11-27T19:38:23.445Z,101699.75
2022-11-27T19:41:07.007Z,101700.69
2022-11-27T19:43:37.180Z,101696.19
2022-11-27T19:46:17.181Z,101688.19
2022-11-27T19:48:50.587Z,101695.25
2022-11-27T19:51:22.955Z,101676.72
2022-11-27T19:53:52.319Z,101679.97
2022-11-27T19:56:27.266Z,101689.00
2022-11-27T19:58:57.265Z,101678.13
2022-11-27T20:01:29.370Z,101667.53
2022-11-27T20:04:00.471Z,101667.41
2022-11-27T20:06:32.375Z,101671.00
2022-11-27T20:09:07.809Z,101669.28
2022-11-27T20:11:37.618Z,101668.41
2022-11-27T20:14:09.527Z,101649.41
2022-11-27T20:16:42.259Z,101671.59
2022-11-27T20:19:18.517Z,101656.31
2022-11-27T20:21:53.473Z,101640.94
2022-11-27T20:24:26.576Z,101651.81
2022-11-27T20:26:59.309Z,101645.38
2022-11-27T20:29:29.440Z,101641.84
2022-11-27T20:32:03.952Z,101651.47
2022-11-27T20:34:34.919Z,101646.19
2022-11-27T20:37:05.540Z,101641.78
2022-11-27T20:39:35.348Z,101640.06
2022-11-27T20:42:07.320Z,101631.88
2022-11-27T20:44:41.393Z,101640.88
2022-11-27T20:47:15.182Z,101639.78
2022-11-27T20:49:46.879Z,101632.59
2022-11-27T20:52:16.737Z,101634.44
2022-11-27T20:54:46.438Z,101621.94
2022-11-27T20:57:18.565Z,101625.53
2022-11-27T20:59:48.758Z,101622.88
2022-11-27T21:02:19.431Z,101628.13
2022-11-27T21:04:56.481Z,101625.41
2022-11-27T21:07:29.608Z,101623.78
2022-11-27T21:09:59.033Z,101618.47
2022-11-27T21:12:28.742Z,101616.88
2022-11-27T21:15:02.061Z,101608.09
2022-11-27T21:17:31.738Z,101614.34
2022-11-27T21:20:04.779Z,101606.66
2022-11-27T21:22:35.142Z,101604.28
2022-11-27T21:25:03.921Z,101605.72
2022-11-27T21:27:33.685Z,101609.19
2022-11-27T21:30:04.567Z,101602.56
2022-11-27T21:32:33.726Z,101601.59
2022-11-27T21:35:04.628Z,101598.75
2022-11-27T21:37:36.161Z,101596.97
2022-11-27T21:40:10.801Z,101599.91
2022-11-27T21:42:44.315Z,101597.25
2022-11-27T21:45:13.712Z,101600.19
2022-11-27T21:47:43.356Z,101587.00
2022-11-27T21:50:16.632Z,101586.19
2022-11-27T21:52:45.768Z,101581.03
2022-11-27T21:55:15.377Z,101583.25
2022-11-27T21:57:44.615Z,101585.44
2022-11-27T22:00:15.078Z,101583.75
2022-11-27T22:02:45.755Z,101581.16
2022-11-27T22:05:17.167Z,101589.94
2022-11-27T22:07:45.920Z,101586.34
2022-11-27T22:10:18.078Z,101583.75
2022-11-27T22:12:47.974Z,101575.53
2022-11-27T22:15:17.803Z,101583.53
2022-11-27T22:17:53.835Z,101575.75
2022-11-27T22:20:24.822Z,101570.38
2022-11-27T22:22:54.423Z,101564.91
2022-11-27T22:25:23.802Z,101564.19
2022-11-27T22:27:53.852Z,101563.31
2022-11-27T22:30:23.002Z,101560.94
2022-11-27T22:32:55.772Z,101562.63
2022-11-27T22:35:31.083Z,101556.25
2022-11-27T22:38:04.223Z,101565.41
2022-11-27T22:40:34.406Z,101549.88
2022-11-27T22:43:03.187Z,101552.53
2022-11-27T22:45:32.939Z,101550.00
2022-11-27T22:48:01.958Z,101542.03
2022-11-27T22:50:32.793Z,101530.09
2022-11-27T22:53:02.147Z,101528.47
2022-11-27T22:55:31.493Z,101527.78
2022-11-27T22:58:05.816Z,101537.03
2022-11-27T23:00:37.480Z,101530.72
2022-11-27T23:03:12.288Z,101529.06
2022-11-27T23:05:49.281Z,101525.91
2022-11-27T23:08:19.211Z,101524.03
2022-11-27T23:10:50.695Z,101526.84
2022-11-27T23:13:20.375Z,101527.63
2022-11-27T23:15:49.572Z,101524.97
2022-11-27T23:18:21.128Z,101526.91
2022-11-27T23:20:52.379Z,101527.91
2022-11-27T23:23:22.636Z,101531.44
2022-11-27T23:25:52.993Z,101522.44
2022-11-27T23:28:21.777Z,101526.09
2022-11-27T23:31:08.987Z,101522.75
2022-11-27T23:33:45.972Z,101515.41
2022-11-27T23:36:21.188Z,101513.53
2022-11-27T23:38:51.345Z,101507.28
2022-11-27T23:41:25.951Z,101505.03
2022-11-27T23:43:56.647Z,101497.97
2022-11-27T23:46:29.896Z,101505.31
2022-11-27T23:49:01.554Z,101507.19
2022-11-27T23:51:34.924Z,101511.88
2022-11-27T23:54:09.692Z,101504.91
2022-11-27T23:56:43.238Z,101504.22
2022-11-27T23:59:13.734Z,101507.91
